sensor_id;sensor_type;location;lat;lon;timestamp;P1;durP1;ratioP1;P2;durP2;ratioP2
5987;SDS011;3021;51.000;6.980;2023-04-24T00:02:09;1.75;;;0.70;;
5987;SDS011;3021;51.000;6.980;2023-04-24T00:04:36;0.60;;;0.60;;
5987;SDS011;3021;51.000;6.980;2023-04-24T00:07:05;2.15;;;0.93;;
5987;SDS011;3021;51.000;6.980;2023-04-24T00:09:31;1.85;;;0.95;;
5987;SDS011;3021;51.000;6.980;2023-04-24T00:11:57;0.85;;;0.70;;
5987;SDS011;3021;51.000;6.980;2023-04-24T00:14:22;1.83;;;1.00;;
5987;SDS011;3021;51.000;6.980;2023-04-24T00:16:48;1.00;;;0.90;;
5987;SDS011;3021;51.000;6.980;2023-04-24T00:19:13;0.90;;;0.82;;
5987;SDS011;3021;51.000;6.980;2023-04-24T00:21:39;1.10;;;1.00;;
5987;SDS011;3021;51.000;6.980;2023-04-24T00:24:05;2.10;;;0.98;;
5987;SDS011;3021;51.000;6.980;2023-04-24T00:26:30;0.90;;;0.90;;
5987;SDS011;3021;51.000;6.980;2023-04-24T00:28:55;1.10;;;1.00;;
5987;SDS011;3021;51.000;6.980;2023-04-24T00:31:21;1.60;;;1.10;;
5987;SDS011;3021;51.000;6.980;2023-04-24T00:33:46;2.75;;;1.25;;
5987;SDS011;3021;51.000;6.980;2023-04-24T00:36:11;1.30;;;1.10;;
5987;SDS011;3021;51.000;6.980;2023-04-24T00:38:37;1.73;;;1.05;;
5987;SDS011;3021;51.000;6.980;2023-04-24T00:41:02;3.67;;;1.20;;
5987;SDS011;3021;51.000;6.980;2023-04-24T00:43:27;1.40;;;1.10;;
5987;SDS011;3021;51.000;6.980;2023-04-24T00:45:53;2.75;;;1.05;;
5987;SDS011;3021;51.000;6.980;2023-04-24T00:48:19;2.00;;;1.42;;
5987;SDS011;3021;51.000;6.980;2023-04-24T00:50:45;2.58;;;1.40;;
5987;SDS011;3021;51.000;6.980;2023-04-24T00:53:10;1.08;;;0.98;;
5987;SDS011;3021;51.000;6.980;2023-04-24T00:55:36;1.30;;;1.20;;
5987;SDS011;3021;51.000;6.980;2023-04-24T00:58:02;1.77;;;1.17;;
5987;SDS011;3021;51.000;6.980;2023-04-24T01:00:27;2.75;;;1.33;;
5987;SDS011;3021;51.000;6.980;2023-04-24T01:02:53;2.08;;;1.45;;
5987;SDS011;3021;51.000;6.980;2023-04-24T01:05:20;2.35;;;1.30;;
5987;SDS011;3021;51.000;6.980;2023-04-24T01:07:46;2.17;;;1.38;;
5987;SDS011;3021;51.000;6.980;2023-04-24T01:10:14;1.58;;;1.10;;
5987;SDS011;3021;51.000;6.980;2023-04-24T01:12:40;2.40;;;1.20;;
5987;SDS011;3021;51.000;6.980;2023-04-24T01:15:06;3.22;;;1.35;;
5987;SDS011;3021;51.000;6.980;2023-04-24T01:17:32;1.30;;;1.17;;
5987;SDS011;3021;51.000;6.980;2023-04-24T01:19:58;1.98;;;1.20;;
5987;SDS011;3021;51.000;6.980;2023-04-24T01:22:25;3.45;;;1.60;;
5987;SDS011;3021;51.000;6.980;2023-04-24T01:24:51;3.70;;;1.48;;
5987;SDS011;3021;51.000;6.980;2023-04-24T01:27:17;3.63;;;1.65;;
5987;SDS011;3021;51.000;6.980;2023-04-24T01:29:42;3.92;;;1.80;;
5987;SDS011;3021;51.000;6.980;2023-04-24T01:32:08;2.17;;;1.50;;
5987;SDS011;3021;51.000;6.980;2023-04-24T01:34:33;2.78;;;1.80;;
5987;SDS011;3021;51.000;6.980;2023-04-24T01:36:59;5.05;;;2.00;;
5987;SDS011;3021;51.000;6.980;2023-04-24T01:39:25;4.40;;;2.15;;
5987;SDS011;3021;51.000;6.980;2023-04-24T01:41:53;3.10;;;2.28;;
5987;SDS011;3021;51.000;6.980;2023-04-24T01:44:18;3.65;;;2.83;;
5987;SDS011;3021;51.000;6.980;2023-04-24T01:46:44;3.95;;;2.85;;
5987;SDS011;3021;51.000;6.980;2023-04-24T01:49:09;5.50;;;3.03;;
5987;SDS011;3021;51.000;6.980;2023-04-24T01:51:35;7.93;;;3.25;;
5987;SDS011;3021;51.000;6.980;2023-04-24T01:54:01;4.28;;;3.08;;
5987;SDS011;3021;51.000;6.980;2023-04-24T01:56:28;6.55;;;2.97;;
5987;SDS011;3021;51.000;6.980;2023-04-24T01:58:54;4.50;;;3.08;;
5987;SDS011;3021;51.000;6.980;2023-04-24T02:01:21;4.63;;;3.60;;
5987;SDS011;3021;51.000;6.980;2023-04-24T02:03:48;6.18;;;3.60;;
5987;SDS011;3021;51.000;6.980;2023-04-24T02:06:13;4.78;;;3.83;;
5987;SDS011;3021;51.000;6.980;2023-04-24T02:08:38;5.90;;;4.10;;
5987;SDS011;3021;51.000;6.980;2023-04-24T02:11:04;9.77;;;4.15;;
5987;SDS011;3021;51.000;6.980;2023-04-24T02:13:30;9.68;;;4.25;;
5987;SDS011;3021;51.000;6.980;2023-04-24T02:15:57;7.05;;;4.45;;
5987;SDS011;3021;51.000;6.980;2023-04-24T02:18:23;8.15;;;4.30;;
5987;SDS011;3021;51.000;6.980;2023-04-24T02:20:48;6.82;;;5.03;;
5987;SDS011;3021;51.000;6.980;2023-04-24T02:23:14;8.55;;;5.60;;
5987;SDS011;3021;51.000;6.980;2023-04-24T02:25:40;9.30;;;5.03;;
5987;SDS011;3021;51.000;6.980;2023-04-24T02:28:05;6.78;;;5.18;;
5987;SDS011;3021;51.000;6.980;2023-04-24T02:30:31;9.15;;;5.55;;
5987;SDS011;3021;51.000;6.980;2023-04-24T02:32:56;9.23;;;5.40;;
5987;SDS011;3021;51.000;6.980;2023-04-24T02:35:21;10.15;;;5.82;;
5987;SDS011;3021;51.000;6.980;2023-04-24T02:37:47;8.95;;;5.32;;
5987;SDS011;3021;51.000;6.980;2023-04-24T02:40:12;11.32;;;5.70;;
5987;SDS011;3021;51.000;6.980;2023-04-24T02:42:38;9.68;;;5.80;;
5987;SDS011;3021;51.000;6.980;2023-04-24T02:45:03;8.48;;;5.30;;
5987;SDS011;3021;51.000;6.980;2023-04-24T02:47:30;7.50;;;5.22;;
5987;SDS011;3021;51.000;6.980;2023-04-24T02:49:55;11.95;;;5.15;;
5987;SDS011;3021;51.000;6.980;2023-04-24T02:52:20;8.40;;;5.68;;
5987;SDS011;3021;51.000;6.980;2023-04-24T02:54:46;8.13;;;5.00;;
5987;SDS011;3021;51.000;6.980;2023-04-24T02:57:11;8.38;;;5.68;;
5987;SDS011;3021;51.000;6.980;2023-04-24T02:59:36;9.73;;;5.43;;
5987;SDS011;3021;51.000;6.980;2023-04-24T03:02:02;8.02;;;5.97;;
5987;SDS011;3021;51.000;6.980;2023-04-24T03:04:27;9.23;;;5.68;;
5987;SDS011;3021;51.000;6.980;2023-04-24T03:06:52;9.68;;;5.75;;
5987;SDS011;3021;51.000;6.980;2023-04-24T03:09:19;10.50;;;5.93;;
5987;SDS011;3021;51.000;6.980;2023-04-24T03:11:48;8.27;;;6.00;;
5987;SDS011;3021;51.000;6.980;2023-04-24T03:14:14;10.45;;;5.78;;
5987;SDS011;3021;51.000;6.980;2023-04-24T03:16:39;9.55;;;6.00;;
5987;SDS011;3021;51.000;6.980;2023-04-24T03:19:05;8.50;;;5.95;;
5987;SDS011;3021;51.000;6.980;2023-04-24T03:21:30;12.27;;;6.30;;
5987;SDS011;3021;51.000;6.980;2023-04-24T03:23:56;10.65;;;6.57;;
5987;SDS011;3021;51.000;6.980;2023-04-24T03:26:21;10.07;;;5.70;;
5987;SDS011;3021;51.000;6.980;2023-04-24T03:28:46;9.77;;;6.18;;
5987;SDS011;3021;51.000;6.980;2023-04-24T03:31:11;14.07;;;7.25;;
5987;SDS011;3021;51.000;6.980;2023-04-24T03:33:37;9.75;;;7.10;;
5987;SDS011;3021;51.000;6.980;2023-04-24T03:36:02;10.68;;;6.78;;
5987;SDS011;3021;51.000;6.980;2023-04-24T03:38:28;12.13;;;6.93;;
5987;SDS011;3021;51.000;6.980;2023-04-24T03:40:53;10.80;;;7.05;;
5987;SDS011;3021;51.000;6.980;2023-04-24T03:43:18;10.90;;;6.97;;
5987;SDS011;3021;51.000;6.980;2023-04-24T03:45:44;11.50;;;7.18;;
5987;SDS011;3021;51.000;6.980;2023-04-24T03:48:09;12.07;;;7.60;;
5987;SDS011;3021;51.000;6.980;2023-04-24T03:50:34;10.00;;;6.55;;
5987;SDS011;3021;51.000;6.980;2023-04-24T03:53:00;10.32;;;6.95;;
5987;SDS011;3021;51.000;6.980;2023-04-24T03:55:25;12.63;;;6.97;;
5987;SDS011;3021;51.000;6.980;2023-04-24T03:57:50;11.95;;;6.88;;
5987;SDS011;3021;51.000;6.980;2023-04-24T04:00:16;12.40;;;8.30;;
5987;SDS011;3021;51.000;6.980;2023-04-24T04:02:41;12.95;;;7.18;;
5987;SDS011;3021;51.000;6.980;2023-04-24T04:05:06;12.32;;;7.15;;
5987;SDS011;3021;51.000;6.980;2023-04-24T04:07:33;9.38;;;6.82;;
5987;SDS011;3021;51.000;6.980;2023-04-24T04:09:58;9.80;;;7.07;;
5987;SDS011;3021;51.000;6.980;2023-04-24T04:12:24;9.68;;;6.32;;
5987;SDS011;3021;51.000;6.980;2023-04-24T04:14:49;10.15;;;6.93;;
5987;SDS011;3021;51.000;6.980;2023-04-24T04:17:14;8.48;;;6.28;;
5987;SDS011;3021;51.000;6.980;2023-04-24T04:19:40;10.70;;;6.20;;
5987;SDS011;3021;51.000;6.980;2023-04-24T04:22:05;10.18;;;6.63;;
5987;SDS011;3021;51.000;6.980;2023-04-24T04:24:32;11.05;;;6.53;;
5987;SDS011;3021;51.000;6.980;2023-04-24T04:26:58;10.10;;;6.88;;
5987;SDS011;3021;51.000;6.980;2023-04-24T04:29:25;11.50;;;6.80;;
5987;SDS011;3021;51.000;6.980;2023-04-24T04:31:50;9.73;;;6.55;;
5987;SDS011;3021;51.000;6.980;2023-04-24T04:34:16;11.20;;;6.70;;
5987;SDS011;3021;51.000;6.980;2023-04-24T04:36:41;13.18;;;6.82;;
5987;SDS011;3021;51.000;6.980;2023-04-24T04:39:08;13.23;;;6.78;;
5987;SDS011;3021;51.000;6.980;2023-04-24T04:41:45;8.02;;;6.47;;
5987;SDS011;3021;51.000;6.980;2023-04-24T04:44:14;12.15;;;6.43;;
5987;SDS011;3021;51.000;6.980;2023-04-24T04:46:39;13.27;;;6.72;;
5987;SDS011;3021;51.000;6.980;2023-04-24T04:49:06;9.88;;;6.10;;
5987;SDS011;3021;51.000;6.980;2023-04-24T04:51:33;11.27;;;6.10;;
5987;SDS011;3021;51.000;6.980;2023-04-24T04:53:58;9.70;;;6.40;;
5987;SDS011;3021;51.000;6.980;2023-04-24T04:56:24;11.05;;;6.13;;
5987;SDS011;3021;51.000;6.980;2023-04-24T04:58:50;9.60;;;6.05;;
5987;SDS011;3021;51.000;6.980;2023-04-24T05:01:15;8.60;;;5.22;;
5987;SDS011;3021;51.000;6.980;2023-04-24T05:03:42;9.25;;;6.13;;
5987;SDS011;3021;51.000;6.980;2023-04-24T05:06:07;6.15;;;5.35;;
5987;SDS011;3021;51.000;6.980;2023-04-24T05:08:33;10.38;;;5.88;;
5987;SDS011;3021;51.000;6.980;2023-04-24T05:10:58;8.35;;;5.65;;
5987;SDS011;3021;51.000;6.980;2023-04-24T05:13:23;8.60;;;5.55;;
5987;SDS011;3021;51.000;6.980;2023-04-24T05:15:49;8.82;;;5.60;;
5987;SDS011;3021;51.000;6.980;2023-04-24T05:18:14;9.95;;;5.50;;
5987;SDS011;3021;51.000;6.980;2023-04-24T05:20:40;11.43;;;5.90;;
5987;SDS011;3021;51.000;6.980;2023-04-24T05:23:08;8.90;;;5.38;;
5987;SDS011;3021;51.000;6.980;2023-04-24T05:25:33;8.40;;;5.60;;
5987;SDS011;3021;51.000;6.980;2023-04-24T05:28:00;13.35;;;5.45;;
5987;SDS011;3021;51.000;6.980;2023-04-24T05:30:25;8.10;;;5.30;;
5987;SDS011;3021;51.000;6.980;2023-04-24T05:32:51;8.07;;;5.32;;
5987;SDS011;3021;51.000;6.980;2023-04-24T05:35:16;8.73;;;5.75;;
5987;SDS011;3021;51.000;6.980;2023-04-24T05:37:41;8.07;;;5.97;;
5987;SDS011;3021;51.000;6.980;2023-04-24T05:40:07;8.73;;;5.60;;
5987;SDS011;3021;51.000;6.980;2023-04-24T05:42:33;7.68;;;6.00;;
5987;SDS011;3021;51.000;6.980;2023-04-24T05:44:59;9.73;;;6.78;;
5987;SDS011;3021;51.000;6.980;2023-04-24T05:47:24;9.75;;;6.60;;
5987;SDS011;3021;51.000;6.980;2023-04-24T05:49:51;11.55;;;6.72;;
5987;SDS011;3021;51.000;6.980;2023-04-24T05:52:16;10.20;;;6.38;;
5987;SDS011;3021;51.000;6.980;2023-04-24T05:54:41;9.25;;;6.82;;
5987;SDS011;3021;51.000;6.980;2023-04-24T05:57:07;10.93;;;6.50;;
5987;SDS011;3021;51.000;6.980;2023-04-24T05:59:36;12.60;;;7.03;;
5987;SDS011;3021;51.000;6.980;2023-04-24T06:02:03;12.32;;;7.30;;
5987;SDS011;3021;51.000;6.980;2023-04-24T06:04:28;13.00;;;7.03;;
5987;SDS011;3021;51.000;6.980;2023-04-24T06:06:54;13.25;;;7.60;;
5987;SDS011;3021;51.000;6.980;2023-04-24T06:09:24;12.90;;;7.03;;
5987;SDS011;3021;51.000;6.980;2023-04-24T06:11:50;13.30;;;6.68;;
5987;SDS011;3021;51.000;6.980;2023-04-24T06:14:24;10.10;;;6.45;;
5987;SDS011;3021;51.000;6.980;2023-04-24T06:16:50;13.77;;;6.22;;
5987;SDS011;3021;51.000;6.980;2023-04-24T06:19:15;8.98;;;5.18;;
5987;SDS011;3021;51.000;6.980;2023-04-24T06:21:41;10.30;;;5.07;;
5987;SDS011;3021;51.000;6.980;2023-04-24T06:24:06;8.23;;;4.72;;
5987;SDS011;3021;51.000;6.980;2023-04-24T06:26:31;8.15;;;3.92;;
5987;SDS011;3021;51.000;6.980;2023-04-24T06:28:57;5.78;;;3.20;;
5987;SDS011;3021;51.000;6.980;2023-04-24T06:31:24;5.00;;;3.13;;
5987;SDS011;3021;51.000;6.980;2023-04-24T06:33:49;3.53;;;3.15;;
5987;SDS011;3021;51.000;6.980;2023-04-24T06:36:14;3.97;;;2.70;;
5987;SDS011;3021;51.000;6.980;2023-04-24T06:38:40;5.63;;;3.05;;
5987;SDS011;3021;51.000;6.980;2023-04-24T06:41:06;3.90;;;2.88;;
5987;SDS011;3021;51.000;6.980;2023-04-24T06:43:31;5.78;;;3.22;;
5987;SDS011;3021;51.000;6.980;2023-04-24T06:45:57;5.68;;;2.60;;
5987;SDS011;3021;51.000;6.980;2023-04-24T06:48:23;5.70;;;2.75;;
5987;SDS011;3021;51.000;6.980;2023-04-24T06:50:50;4.50;;;3.42;;
5987;SDS011;3021;51.000;6.980;2023-04-24T06:53:15;4.38;;;2.67;;
5987;SDS011;3021;51.000;6.980;2023-04-24T06:55:41;3.60;;;2.63;;
5987;SDS011;3021;51.000;6.980;2023-04-24T06:58:08;3.90;;;2.67;;
5987;SDS011;3021;51.000;6.980;2023-04-24T07:00:33;5.85;;;2.95;;
5987;SDS011;3021;51.000;6.980;2023-04-24T07:02:59;3.78;;;2.80;;
5987;SDS011;3021;51.000;6.980;2023-04-24T07:05:24;3.72;;;2.70;;
5987;SDS011;3021;51.000;6.980;2023-04-24T07:07:50;6.78;;;2.80;;
5987;SDS011;3021;51.000;6.980;2023-04-24T07:10:16;5.13;;;2.90;;
5987;SDS011;3021;51.000;6.980;2023-04-24T07:12:41;3.92;;;3.10;;
5987;SDS011;3021;51.000;6.980;2023-04-24T07:15:07;6.65;;;3.15;;
5987;SDS011;3021;51.000;6.980;2023-04-24T07:17:33;6.10;;;3.05;;
5987;SDS011;3021;51.000;6.980;2023-04-24T07:19:59;3.88;;;2.97;;
5987;SDS011;3021;51.000;6.980;2023-04-24T07:22:25;5.55;;;3.13;;
5987;SDS011;3021;51.000;6.980;2023-04-24T07:24:50;7.40;;;3.55;;
5987;SDS011;3021;51.000;6.980;2023-04-24T07:27:16;6.65;;;3.78;;
5987;SDS011;3021;51.000;6.980;2023-04-24T07:29:41;5.55;;;4.00;;
5987;SDS011;3021;51.000;6.980;2023-04-24T07:32:07;7.00;;;4.38;;
5987;SDS011;3021;51.000;6.980;2023-04-24T07:34:32;5.47;;;3.88;;
5987;SDS011;3021;51.000;6.980;2023-04-24T07:36:58;6.65;;;3.53;;
5987;SDS011;3021;51.000;6.980;2023-04-24T07:39:23;6.68;;;2.95;;
5987;SDS011;3021;51.000;6.980;2023-04-24T07:41:49;3.75;;;2.85;;
5987;SDS011;3021;51.000;6.980;2023-04-24T07:44:14;3.22;;;2.60;;
5987;SDS011;3021;51.000;6.980;2023-04-24T07:46:40;5.10;;;2.53;;
5987;SDS011;3021;51.000;6.980;2023-04-24T07:49:05;4.10;;;2.65;;
5987;SDS011;3021;51.000;6.980;2023-04-24T07:51:31;4.43;;;2.72;;
5987;SDS011;3021;51.000;6.980;2023-04-24T07:53:58;2.70;;;2.30;;
5987;SDS011;3021;51.000;6.980;2023-04-24T07:56:23;5.85;;;2.45;;
5987;SDS011;3021;51.000;6.980;2023-04-24T07:58:49;4.03;;;2.30;;
5987;SDS011;3021;51.000;6.980;2023-04-24T08:01:14;3.83;;;2.33;;
5987;SDS011;3021;51.000;6.980;2023-04-24T08:03:40;3.50;;;2.50;;
5987;SDS011;3021;51.000;6.980;2023-04-24T08:06:05;3.45;;;1.95;;
5987;SDS011;3021;51.000;6.980;2023-04-24T08:08:34;10.00;;;2.33;;
5987;SDS011;3021;51.000;6.980;2023-04-24T08:11:00;3.08;;;2.03;;
5987;SDS011;3021;51.000;6.980;2023-04-24T08:13:25;1.85;;;1.75;;
5987;SDS011;3021;51.000;6.980;2023-04-24T08:15:50;2.80;;;2.20;;
5987;SDS011;3021;51.000;6.980;2023-04-24T08:18:16;4.22;;;2.20;;
5987;SDS011;3021;51.000;6.980;2023-04-24T08:20:41;5.40;;;2.30;;
5987;SDS011;3021;51.000;6.980;2023-04-24T08:23:07;4.68;;;1.98;;
5987;SDS011;3021;51.000;6.980;2023-04-24T08:25:32;2.38;;;2.00;;
5987;SDS011;3021;51.000;6.980;2023-04-24T08:28:00;3.15;;;1.83;;
5987;SDS011;3021;51.000;6.980;2023-04-24T08:30:25;3.38;;;1.92;;
5987;SDS011;3021;51.000;6.980;2023-04-24T08:32:50;3.28;;;2.20;;
5987;SDS011;3021;51.000;6.980;2023-04-24T08:35:16;3.05;;;2.00;;
5987;SDS011;3021;51.000;6.980;2023-04-24T08:37:41;3.58;;;2.60;;
5987;SDS011;3021;51.000;6.980;2023-04-24T08:40:11;3.60;;;2.28;;
5987;SDS011;3021;51.000;6.980;2023-04-24T08:42:39;3.35;;;2.10;;
5987;SDS011;3021;51.000;6.980;2023-04-24T08:45:08;6.47;;;2.53;;
5987;SDS011;3021;51.000;6.980;2023-04-24T08:47:34;4.47;;;2.55;;
5987;SDS011;3021;51.000;6.980;2023-04-24T08:50:00;2.97;;;2.28;;
5987;SDS011;3021;51.000;6.980;2023-04-24T08:52:28;3.10;;;2.70;;
5987;SDS011;3021;51.000;6.980;2023-04-24T08:54:53;4.20;;;2.95;;
5987;SDS011;3021;51.000;6.980;2023-04-24T08:57:19;7.78;;;3.30;;
5987;SDS011;3021;51.000;6.980;2023-04-24T08:59:45;6.53;;;3.42;;
5987;SDS011;3021;51.000;6.980;2023-04-24T09:02:11;4.80;;;3.58;;
5987;SDS011;3021;51.000;6.980;2023-04-24T09:04:38;5.43;;;3.90;;
5987;SDS011;3021;51.000;6.980;2023-04-24T09:07:06;8.23;;;3.72;;
5987;SDS011;3021;51.000;6.980;2023-04-24T09:09:33;6.88;;;4.70;;
5987;SDS011;3021;51.000;6.980;2023-04-24T09:12:00;8.75;;;4.95;;
5987;SDS011;3021;51.000;6.980;2023-04-24T09:14:25;8.57;;;5.10;;
5987;SDS011;3021;51.000;6.980;2023-04-24T09:16:51;13.10;;;6.30;;
5987;SDS011;3021;51.000;6.980;2023-04-24T09:19:16;11.90;;;5.70;;
5987;SDS011;3021;51.000;6.980;2023-04-24T09:21:42;14.80;;;7.50;;
5987;SDS011;3021;51.000;6.980;2023-04-24T09:24:18;14.40;;;6.38;;
5987;SDS011;3021;51.000;6.980;2023-04-24T09:26:47;16.38;;;6.93;;
5987;SDS011;3021;51.000;6.980;2023-04-24T09:29:14;9.95;;;6.55;;
5987;SDS011;3021;51.000;6.980;2023-04-24T09:31:41;12.07;;;7.03;;
5987;SDS011;3021;51.000;6.980;2023-04-24T09:34:07;17.38;;;7.57;;
5987;SDS011;3021;51.000;6.980;2023-04-24T09:36:39;13.63;;;7.82;;
5987;SDS011;3021;51.000;6.980;2023-04-24T09:39:07;12.10;;;8.60;;
5987;SDS011;3021;51.000;6.980;2023-04-24T09:41:35;14.13;;;8.15;;
5987;SDS011;3021;51.000;6.980;2023-04-24T09:44:14;15.52;;;7.72;;
5987;SDS011;3021;51.000;6.980;2023-04-24T09:49:12;15.38;;;8.00;;
5987;SDS011;3021;51.000;6.980;2023-04-24T09:51:39;13.25;;;7.90;;
5987;SDS011;3021;51.000;6.980;2023-04-24T09:54:05;16.52;;;7.78;;
5987;SDS011;3021;51.000;6.980;2023-04-24T09:56:41;15.68;;;8.85;;
5987;SDS011;3021;51.000;6.980;2023-04-24T09:59:09;19.50;;;9.52;;
5987;SDS011;3021;51.000;6.980;2023-04-24T10:01:34;17.88;;;8.88;;
5987;SDS011;3021;51.000;6.980;2023-04-24T10:04:00;15.80;;;9.32;;
5987;SDS011;3021;51.000;6.980;2023-04-24T10:06:31;16.35;;;9.68;;
5987;SDS011;3021;51.000;6.980;2023-04-24T10:08:58;19.58;;;10.18;;
5987;SDS011;3021;51.000;6.980;2023-04-24T10:11:26;15.25;;;9.18;;
5987;SDS011;3021;51.000;6.980;2023-04-24T10:13:52;21.83;;;9.63;;
5987;SDS011;3021;51.000;6.980;2023-04-24T10:16:18;16.27;;;9.57;;
5987;SDS011;3021;51.000;6.980;2023-04-24T10:18:46;21.42;;;8.82;;
5987;SDS011;3021;51.000;6.980;2023-04-24T10:21:14;16.05;;;8.65;;
5987;SDS011;3021;51.000;6.980;2023-04-24T10:23:41;17.88;;;8.45;;
5987;SDS011;3021;51.000;6.980;2023-04-24T10:26:08;19.13;;;8.85;;
5987;SDS011;3021;51.000;6.980;2023-04-24T10:28:36;17.35;;;8.05;;
5987;SDS011;3021;51.000;6.980;2023-04-24T10:31:01;17.85;;;7.55;;
5987;SDS011;3021;51.000;6.980;2023-04-24T10:33:27;15.35;;;7.03;;
5987;SDS011;3021;51.000;6.980;2023-04-24T10:35:54;14.13;;;6.63;;
5987;SDS011;3021;51.000;6.980;2023-04-24T10:38:24;13.52;;;7.25;;
5987;SDS011;3021;51.000;6.980;2023-04-24T10:41:26;12.05;;;5.72;;
5987;SDS011;3021;51.000;6.980;2023-04-24T10:43:48;18.92;;;6.57;;
5987;SDS011;3021;51.000;6.980;2023-04-24T10:46:21;15.63;;;7.20;;
5987;SDS011;3021;51.000;6.980;2023-04-24T10:48:53;17.35;;;6.85;;
5987;SDS011;3021;51.000;6.980;2023-04-24T10:51:21;12.52;;;7.50;;
5987;SDS011;3021;51.000;6.980;2023-04-24T10:53:49;12.30;;;5.43;;
5987;SDS011;3021;51.000;6.980;2023-04-24T10:56:16;19.83;;;6.80;;
5987;SDS011;3021;51.000;6.980;2023-04-24T10:58:49;11.98;;;5.80;;
5987;SDS011;3021;51.000;6.980;2023-04-24T11:01:24;12.43;;;5.55;;
5987;SDS011;3021;51.000;6.980;2023-04-24T11:03:54;15.20;;;5.05;;
5987;SDS011;3021;51.000;6.980;2023-04-24T11:06:28;14.98;;;5.22;;
5987;SDS011;3021;51.000;6.980;2023-04-24T11:11:32;10.27;;;4.55;;
5987;SDS011;3021;51.000;6.980;2023-04-24T11:26:58;15.77;;;5.03;;
5987;SDS011;3021;51.000;6.980;2023-04-24T11:34:59;13.18;;;4.32;;
5987;SDS011;3021;51.000;6.980;2023-04-24T11:37:27;12.07;;;4.30;;
5987;SDS011;3021;51.000;6.980;2023-04-24T11:39:53;9.88;;;4.18;;
5987;SDS011;3021;51.000;6.980;2023-04-24T11:42:21;12.68;;;4.10;;
5987;SDS011;3021;51.000;6.980;2023-04-24T11:44:48;9.50;;;3.92;;
5987;SDS011;3021;51.000;6.980;2023-04-24T11:47:14;10.90;;;4.85;;
5987;SDS011;3021;51.000;6.980;2023-04-24T11:49:40;12.45;;;4.90;;
5987;SDS011;3021;51.000;6.980;2023-04-24T11:52:05;16.67;;;5.05;;
5987;SDS011;3021;51.000;6.980;2023-04-24T11:54:31;18.63;;;5.25;;
5987;SDS011;3021;51.000;6.980;2023-04-24T11:56:57;14.98;;;4.90;;
5987;SDS011;3021;51.000;6.980;2023-04-24T11:59:22;13.63;;;5.28;;
5987;SDS011;3021;51.000;6.980;2023-04-24T12:01:48;20.58;;;6.05;;
5987;SDS011;3021;51.000;6.980;2023-04-24T12:04:15;14.07;;;4.60;;
5987;SDS011;3021;51.000;6.980;2023-04-24T12:09:43;11.93;;;4.82;;
5987;SDS011;3021;51.000;6.980;2023-04-24T12:12:10;11.30;;;5.22;;
5987;SDS011;3021;51.000;6.980;2023-04-24T12:14:50;18.75;;;6.43;;
5987;SDS011;3021;51.000;6.980;2023-04-24T12:17:17;13.88;;;5.78;;
5987;SDS011;3021;51.000;6.980;2023-04-24T12:19:48;11.13;;;5.32;;
5987;SDS011;3021;51.000;6.980;2023-04-24T12:22:14;11.88;;;5.72;;
5987;SDS011;3021;51.000;6.980;2023-04-24T12:24:55;16.92;;;5.95;;
5987;SDS011;3021;51.000;6.980;2023-04-24T12:27:22;14.98;;;5.63;;
5987;SDS011;3021;51.000;6.980;2023-04-24T12:29:56;15.30;;;6.18;;
5987;SDS011;3021;51.000;6.980;2023-04-24T12:32:23;12.85;;;6.32;;
5987;SDS011;3021;51.000;6.980;2023-04-24T12:34:50;15.55;;;6.80;;
5987;SDS011;3021;51.000;6.980;2023-04-24T12:37:16;10.57;;;5.70;;
5987;SDS011;3021;51.000;6.980;2023-04-24T12:40:01;12.43;;;4.68;;
5987;SDS011;3021;51.000;6.980;2023-04-24T12:42:35;12.70;;;4.80;;
5987;SDS011;3021;51.000;6.980;2023-04-24T12:45:05;14.45;;;4.85;;
5987;SDS011;3021;51.000;6.980;2023-04-24T12:47:31;12.15;;;4.70;;
5987;SDS011;3021;51.000;6.980;2023-04-24T12:49:58;12.00;;;4.28;;
5987;SDS011;3021;51.000;6.980;2023-04-24T12:52:27;11.82;;;4.20;;
5987;SDS011;3021;51.000;6.980;2023-04-24T12:54:55;12.95;;;4.35;;
5987;SDS011;3021;51.000;6.980;2023-04-24T12:57:26;8.95;;;3.65;;
5987;SDS011;3021;51.000;6.980;2023-04-24T12:59:54;13.52;;;4.25;;
5987;SDS011;3021;51.000;6.980;2023-04-24T13:02:21;9.00;;;3.65;;
5987;SDS011;3021;51.000;6.980;2023-04-24T13:04:47;9.35;;;3.80;;
5987;SDS011;3021;51.000;6.980;2023-04-24T13:07:13;10.18;;;3.75;;
5987;SDS011;3021;51.000;6.980;2023-04-24T13:09:39;8.35;;;3.90;;
5987;SDS011;3021;51.000;6.980;2023-04-24T13:12:06;9.73;;;3.75;;
5987;SDS011;3021;51.000;6.980;2023-04-24T13:14:32;14.65;;;4.45;;
5987;SDS011;3021;51.000;6.980;2023-04-24T13:16:57;10.07;;;3.60;;
5987;SDS011;3021;51.000;6.980;2023-04-24T13:19:26;12.13;;;4.47;;
5987;SDS011;3021;51.000;6.980;2023-04-24T13:21:52;7.95;;;4.28;;
5987;SDS011;3021;51.000;6.980;2023-04-24T13:24:24;10.32;;;4.38;;
5987;SDS011;3021;51.000;6.980;2023-04-24T13:26:53;10.85;;;4.45;;
5987;SDS011;3021;51.000;6.980;2023-04-24T13:29:19;7.80;;;4.00;;
5987;SDS011;3021;51.000;6.980;2023-04-24T13:31:45;8.90;;;3.65;;
5987;SDS011;3021;51.000;6.980;2023-04-24T13:34:12;10.07;;;3.70;;
5987;SDS011;3021;51.000;6.980;2023-04-24T13:36:38;4.43;;;3.10;;
5987;SDS011;3021;51.000;6.980;2023-04-24T13:39:03;8.18;;;3.20;;
5987;SDS011;3021;51.000;6.980;2023-04-24T13:41:30;10.75;;;3.30;;
5987;SDS011;3021;51.000;6.980;2023-04-24T13:43:57;7.10;;;3.30;;
5987;SDS011;3021;51.000;6.980;2023-04-24T13:46:22;7.15;;;3.17;;
5987;SDS011;3021;51.000;6.980;2023-04-24T13:48:47;7.55;;;3.58;;
5987;SDS011;3021;51.000;6.980;2023-04-24T13:51:13;9.23;;;3.13;;
5987;SDS011;3021;51.000;6.980;2023-04-24T13:53:38;9.95;;;3.67;;
5987;SDS011;3021;51.000;6.980;2023-04-24T13:56:04;8.27;;;3.67;;
5987;SDS011;3021;51.000;6.980;2023-04-24T13:58:30;5.78;;;3.00;;
5987;SDS011;3021;51.000;6.980;2023-04-24T14:00:56;6.28;;;3.20;;
5987;SDS011;3021;51.000;6.980;2023-04-24T14:03:21;10.48;;;3.88;;
5987;SDS011;3021;51.000;6.980;2023-04-24T14:05:46;10.88;;;3.80;;
5987;SDS011;3021;51.000;6.980;2023-04-24T14:08:12;9.75;;;3.55;;
5987;SDS011;3021;51.000;6.980;2023-04-24T14:10:37;13.20;;;3.60;;
5987;SDS011;3021;51.000;6.980;2023-04-24T14:13:02;6.82;;;3.05;;
5987;SDS011;3021;51.000;6.980;2023-04-24T14:15:28;7.00;;;3.38;;
5987;SDS011;3021;51.000;6.980;2023-04-24T14:17:53;10.93;;;3.38;;
5987;SDS011;3021;51.000;6.980;2023-04-24T14:20:19;11.00;;;3.63;;
5987;SDS011;3021;51.000;6.980;2023-04-24T14:22:44;9.73;;;3.95;;
5987;SDS011;3021;51.000;6.980;2023-04-24T14:25:09;7.72;;;3.78;;
5987;SDS011;3021;51.000;6.980;2023-04-24T14:27:35;7.68;;;3.42;;
5987;SDS011;3021;51.000;6.980;2023-04-24T14:30:01;6.47;;;3.13;;
5987;SDS011;3021;51.000;6.980;2023-04-24T14:32:26;9.57;;;3.45;;
5987;SDS011;3021;51.000;6.980;2023-04-24T14:34:51;9.35;;;3.78;;
5987;SDS011;3021;51.000;6.980;2023-04-24T14:37:17;5.50;;;3.25;;
5987;SDS011;3021;51.000;6.980;2023-04-24T14:39:42;7.00;;;3.80;;
5987;SDS011;3021;51.000;6.980;2023-04-24T14:42:08;9.20;;;3.83;;
5987;SDS011;3021;51.000;6.980;2023-04-24T14:44:33;7.43;;;3.67;;
5987;SDS011;3021;51.000;6.980;2023-04-24T14:46:59;10.35;;;3.80;;
5987;SDS011;3021;51.000;6.980;2023-04-24T14:49:25;8.40;;;3.50;;
5987;SDS011;3021;51.000;6.980;2023-04-24T14:51:50;5.65;;;3.72;;
5987;SDS011;3021;51.000;6.980;2023-04-24T14:54:16;10.07;;;3.50;;
5987;SDS011;3021;51.000;6.980;2023-04-24T14:56:41;8.45;;;3.47;;
5987;SDS011;3021;51.000;6.980;2023-04-24T14:59:08;10.38;;;3.80;;
5987;SDS011;3021;51.000;6.980;2023-04-24T15:01:34;7.00;;;3.10;;
5987;SDS011;3021;51.000;6.980;2023-04-24T15:03:59;6.30;;;2.30;;
5987;SDS011;3021;51.000;6.980;2023-04-24T15:06:25;9.30;;;3.53;;
5987;SDS011;3021;51.000;6.980;2023-04-24T15:08:50;5.47;;;2.95;;
5987;SDS011;3021;51.000;6.980;2023-04-24T15:11:16;8.20;;;2.67;;
5987;SDS011;3021;51.000;6.980;2023-04-24T15:13:42;7.32;;;3.00;;
5987;SDS011;3021;51.000;6.980;2023-04-24T15:16:07;3.95;;;2.67;;
5987;SDS011;3021;51.000;6.980;2023-04-24T15:18:32;5.70;;;2.95;;
5987;SDS011;3021;51.000;6.980;2023-04-24T15:20:58;6.03;;;2.67;;
5987;SDS011;3021;51.000;6.980;2023-04-24T15:23:23;6.55;;;2.75;;
5987;SDS011;3021;51.000;6.980;2023-04-24T15:25:48;9.43;;;3.10;;
5987;SDS011;3021;51.000;6.980;2023-04-24T15:28:14;8.20;;;3.70;;
5987;SDS011;3021;51.000;6.980;2023-04-24T15:30:40;12.27;;;3.78;;
5987;SDS011;3021;51.000;6.980;2023-04-24T15:33:06;5.32;;;3.30;;